Terminal Aerodrome Forecast
Issued by NWS Wichita, KS

Home | Current Version | Previous Version | Text Only | Print | Product List | Glossary Off
Versions: 1 2 3 4 5 6 7 8 9 10 11 12 13 14 15 16 17 18 19 20

000
FTUS43 KICT 172335
TAFICT
TAF
KICT 172335Z 1800/1824 15007KT P6SM OVC013
     FM180300 13004KT P6SM OVC008
     FM180600 13005KT 5SM BR OVC005
     FM181000 13007KT 4SM BR OVC003
      TEMPO 1810/1814 4SM TSRA SCT005 OVC015CB
     FM181400 18007KT P6SM OVC013=

USA.gov is the U.S. government's official web portal to all federal, state and local government web resources and services.